Lake Center, Mississippi
Current Conditions -  °F | °C
As of 3:15 PM on Friday 28 Nov 2014 (Local Time) from KUOX Reporting Station
Clear Clear  
Wind Chill: 54°   Ceiling: Unl
Heat Index: 54°   Visibility: 10mi
Dew Point: 25°   Wind: 8mph
Humidity: 33%   Direction: 170°S
Pressure: 30.23"   Gusts: 16mph
Location:  34.5725°N, 89.3417°W
Report Text: KUOX 282115Z AUTO 17007G14KT 10SM CLR 12/M04 A3023 RMK AO2 PWINO PNO
Loading
Personal Weather Stations






























Interactive Weather Map New forecast layout! Learn more

10-Day Weather Forecast

Advertisements
Track Severe Weather on mobile